Погода Демиховона неделю

Тверская область, Россия

27 мая-02 июня
  • 27мая
    Сегодня
    +9°
    +23°
    Ясно и безоблачно
    ВремяПогодаТемператураВлажностьДавлениеВетер, м/сВероятность осадков
    00:00Небольшая облачность+12°C75 %756 мм1.2 м/с2 %
    03:00Ясно и безоблачно+9°C59 %756 мм1.2 м/с2 %
    06:00Облачно с прояснениями+10°C67 %757 мм1.1 м/с2 %
    09:00Ясно и безоблачно+17°C59 %757 мм1.6 м/с2 %
    12:00Ясно и безоблачно+21°C43 %757 мм2.3 м/с2 %
    15:00Ясно и безоблачно+23°C40 %756 мм2.3 м/с2 %
    18:00Ясно и безоблачно+23°C39 %755 мм1.9 м/с2 %
    21:00Ясно и безоблачно+19°C58 %754 мм1.3 м/с2 %
  • 28мая
    Вторник
    +11°
    +26°
    Небольшая облачность
    ВремяПогодаТемператураВлажностьДавлениеВетер, м/сВероятность осадков
    00:00Ясно и безоблачно+13°C60 %754 мм0.8 м/с2 %
    03:00Ясно и безоблачно+10°C62 %754 мм0.9 м/с2 %
    06:00Ясно и безоблачно+12°C66 %754 мм1.1 м/с2 %
    09:00Ясно и безоблачно+20°C56 %754 мм1.7 м/с2 %
    12:00Практически безоблачно+24°C43 %753 мм2.0 м/с2 %
    15:00Небольшая облачность+25°C36 %752 мм2.3 м/с2 %
    18:00Ясно и безоблачно+25°C38 %751 мм2.0 м/с2 %
    21:00Ясно и безоблачно+20°C65 %751 мм1.1 м/с2 %
  • 29мая
    Среда
    +11°
    +26°
    Практически безоблачно
    ВремяПогодаТемператураВлажностьДавлениеВетер, м/сВероятность осадков
    00:00Ясно и безоблачно+14°C63 %750 мм0.7 м/с2 %
    03:00Ясно и безоблачно+11°C77 %750 мм0.5 м/с2 %
    06:00Ясно и безоблачно+14°C77 %749 мм0.7 м/с2 %
    09:00Ясно и безоблачно+22°C52 %750 мм1.1 м/с2 %
    12:00Практически безоблачно+25°C37 %749 мм1.8 м/с3 %
    15:00Практически безоблачно+25°C36 %748 мм1.8 м/с8 %
    18:00Практически безоблачно+25°C38 %747 мм1.7 м/с12 %
    21:00Ясно и безоблачно+21°C66 %747 мм1.2 м/с4 %
  • 30мая
    Четверг
    +13°
    +27°
    Небольшая облачность
    ВремяПогодаТемператураВлажностьДавлениеВетер, м/сВероятность осадков
    00:00Ясно и безоблачно+15°C81 %747 мм0.3 м/с2 %
    03:00Ясно и безоблачно+13°C89 %747 мм0.4 м/с2 %
    06:00Практически безоблачно+14°C87 %747 мм0.7 м/с2 %
    09:00Небольшая облачность+22°C65 %747 мм1.3 м/с2 %
    12:00Практически безоблачно+26°C43 %747 мм2.0 м/с8 %
    15:00Небольшая облачность+26°C39 %746 мм2.4 м/с22 %
    18:00Облачно с прояснениями+26°C41 %746 мм2.2 м/с23 %
    21:00Практически безоблачно+22°C67 %746 мм1.1 м/с8 %
  • 31мая
    Пятница
    +13°
    +28°
    Практически безоблачно
    ВремяПогодаТемператураВлажностьДавлениеВетер, м/сВероятность осадков
    00:00Ясно и безоблачно+16°C72 %746 мм0.4 м/с2 %
    03:00Практически безоблачно+14°C78 %746 мм0.6 м/с2 %
    06:00Ясно и безоблачно+15°C75 %747 мм1.5 м/с2 %
    09:00Небольшая облачность+22°C49 %747 мм2.3 м/с2 %
    12:00Облачно с прояснениями+25°C32 %748 мм2.5 м/с14 %
    15:00Практически безоблачно+28°C33 %747 мм3.3 м/с20 %
    18:00Небольшая облачность+27°C35 %747 мм3.2 м/с24 %
    21:00Практически безоблачно+23°C54 %747 мм1.9 м/с5 %
Мы используем cookies
Соглашаюсь